Jacobstown, New Jersey
Current Conditions -  °F | °C
As of 7:58 AM on Tuesday 21 Oct 2014 (Local Time) from KWRI Reporting Station
Broken Clouds Broken Clouds  
Wind Chill: 46°   Ceiling: 12000
Heat Index: 46°   Visibility: 10mi
Dew Point: 46°   Wind: 0mph
Humidity: 99%   Direction: NA
Pressure: 29.86"   Gusts: NA
Location:  40.0733°N, 74.5866°W
Report Text: KWRI 211158Z AUTO 00000KT 10SM FEW070 BKN120 08/08 A2986 RMK AO2 SLP115 T00770076 10101 20071 55003
Loading
Personal Weather Stations






























Interactive Weather Map
Tropical Storm Tracking
New forecast layout! Learn more

10-Day Weather Forecast

Advertisements
Track Severe Weather on mobile